KLAL/LAL METAR and TAF weather

Enter ICAO airport designator
Station Type Date Time Source
KLAL METAR 2021/09/24 02:55 UTC NOAA

KLAL 240255Z AUTO 08009KT 10SM VCTS SCT021 BKN027 OVC037 26/22 A2996 RMK AO2 LTG DSNT SE AND S PNO


Station Type Date Time Source
KLAL Decoded METAR 2021/09/24 02:55 UTC NOAA

Lakeland Regional, FL, United States (KLAL) 27-59N 082-01W
Sep 23, 2021 - 10:55 PM EDT / 2021.09.24 0255 UTC
Wind: from the E (080 degrees) at 10 MPH (9 KT):0
Visibility: 10 mile(s):0
Sky conditions: overcast
Weather: thunder in the vicinity; Lightning observed
Temperature: 78 F (26 C)
Dew Point: 71 F (22 C)
Relative Humidity: 78%
Pressure (altimeter): 29.96 in. Hg (1014 hPa)
ob: KLAL 240255Z AUTO 08009KT 10SM VCTS SCT021 BKN027 OVC037 26/22 A2996 RMK AO2 LTG DSNT SE AND S PNO
cycle: 3

Station Type Date Time Source
KLAL TAF 2021/09/24 03:03 UTC NOAA

TAF
AMD KLAL 240302Z 2403/2424 03004KT P6SM SCT025
TEMPO 2403/2404 VRB10G20KT 3SM TSRA BKN020CB
FM241400 05006KT P6SM SCT050
AMD NOT SKED TIL 241100

Example: see airport list